createdAt,value
2022-11-05T00:01:41.178Z,1.10
2022-11-05T00:04:31.159Z,0.80
2022-11-05T00:07:26.869Z,0.80
2022-11-05T00:10:29.167Z,0.90
2022-11-05T00:13:21.224Z,0.73
2022-11-05T00:16:09.398Z,0.80
2022-11-05T00:18:38.202Z,0.82
2022-11-05T00:21:28.495Z,1.00
2022-11-05T00:24:23.199Z,0.88
2022-11-05T00:26:57.158Z,0.88
2022-11-05T00:29:28.665Z,0.80
2022-11-05T00:31:59.416Z,1.00
2022-11-05T00:34:28.555Z,0.90
2022-11-05T00:36:58.296Z,1.00
2022-11-05T00:39:27.912Z,1.15
2022-11-05T00:42:13.513Z,0.80
2022-11-05T00:45:02.414Z,0.90
2022-11-05T00:47:53.882Z,0.80
2022-11-05T00:50:22.811Z,0.80
2022-11-05T00:52:57.563Z,0.85
2022-11-05T00:55:44.667Z,0.95
2022-11-05T00:58:23.494Z,0.88
2022-11-05T01:00:58.577Z,1.02
2022-11-05T01:03:35.869Z,1.00
2022-11-05T01:06:21.030Z,0.80
2022-11-05T01:08:55.585Z,0.80
2022-11-05T01:11:35.977Z,0.80
2022-11-05T01:14:17.723Z,0.80
2022-11-05T01:16:49.096Z,0.90
2022-11-05T01:19:18.018Z,0.90
2022-11-05T01:21:49.283Z,0.70
2022-11-05T01:24:20.067Z,0.85
2022-11-05T01:26:48.298Z,0.80
2022-11-05T01:29:19.834Z,0.90
2022-11-05T01:31:51.400Z,0.80
2022-11-05T01:34:22.815Z,0.90
2022-11-05T01:36:52.521Z,0.70
2022-11-05T01:39:25.963Z,0.90
2022-11-05T01:42:04.166Z,0.65
2022-11-05T01:44:52.912Z,0.70
2022-11-05T01:47:30.758Z,0.82
2022-11-05T01:50:02.776Z,0.80
2022-11-05T01:52:35.862Z,0.90
2022-11-05T01:55:05.692Z,0.70
2022-11-05T01:57:35.932Z,1.08
2022-11-05T02:00:08.726Z,0.80
2022-11-05T02:02:38.851Z,0.70
2022-11-05T02:05:10.112Z,0.93
2022-11-05T02:07:38.294Z,0.70
2022-11-05T02:10:19.777Z,0.80
2022-11-05T02:12:50.524Z,0.60
2022-11-05T02:15:40.518Z,0.95
2022-11-05T02:18:28.572Z,0.80
2022-11-05T02:21:36.423Z,0.85
2022-11-05T02:24:31.011Z,0.80
2022-11-05T02:27:25.642Z,0.80
2022-11-05T02:30:05.091Z,0.80
2022-11-05T02:33:11.840Z,0.98
2022-11-05T02:36:00.572Z,0.80
2022-11-05T02:38:40.354Z,0.90
2022-11-05T02:41:19.495Z,0.80
2022-11-05T02:44:28.408Z,0.80
2022-11-05T02:47:06.817Z,0.85
2022-11-05T02:49:46.509Z,0.93
2022-11-05T02:52:38.577Z,0.63
2022-11-05T02:55:27.963Z,0.80
2022-11-05T02:57:56.863Z,0.75
2022-11-05T03:00:48.845Z,0.70
2022-11-05T03:03:24.450Z,0.88
2022-11-05T03:06:16.879Z,0.80
2022-11-05T03:09:13.505Z,0.70
2022-11-05T03:12:00.566Z,0.90
2022-11-05T03:14:40.973Z,0.90
2022-11-05T03:17:40.791Z,0.82
2022-11-05T03:20:31.367Z,0.85
2022-11-05T03:23:36.936Z,0.60
2022-11-05T03:26:22.301Z,0.80
2022-11-05T03:28:55.865Z,1.00
2022-11-05T03:31:31.616Z,0.70
2022-11-05T03:34:03.300Z,0.70
2022-11-05T03:36:41.641Z,0.80
2022-11-05T03:39:14.760Z,0.60
2022-11-05T03:42:07.802Z,0.70
2022-11-05T03:44:39.809Z,0.70
2022-11-05T03:47:13.855Z,0.70
2022-11-05T03:50:00.473Z,0.65
2022-11-05T03:52:36.491Z,0.80
2022-11-05T03:55:10.102Z,0.60
2022-11-05T03:57:42.723Z,0.73
2022-11-05T04:00:13.149Z,0.80
2022-11-05T04:02:44.034Z,0.70
2022-11-05T04:05:13.349Z,0.73
2022-11-05T04:08:00.733Z,0.75
2022-11-05T04:10:48.106Z,0.70
2022-11-05T04:13:26.269Z,0.63
2022-11-05T04:16:15.146Z,0.70
2022-11-05T04:18:46.226Z,0.70
2022-11-05T04:21:33.696Z,0.80
2022-11-05T04:24:10.345Z,0.77
2022-11-05T04:26:45.203Z,0.70
2022-11-05T04:29:39.432Z,0.88
2022-11-05T04:32:08.180Z,0.75
2022-11-05T04:34:36.391Z,0.70
2022-11-05T04:37:06.404Z,0.73
2022-11-05T04:39:37.820Z,0.80
2022-11-05T04:42:08.708Z,0.80
2022-11-05T04:44:40.941Z,0.73
2022-11-05T04:47:12.636Z,0.60
2022-11-05T04:49:41.457Z,0.70
2022-11-05T04:52:08.522Z,0.52
2022-11-05T04:54:40.397Z,0.60
2022-11-05T04:57:11.408Z,0.70
2022-11-05T04:59:42.086Z,0.68
2022-11-05T05:02:12.341Z,0.65
2022-11-05T05:04:44.141Z,0.80
2022-11-05T05:07:10.579Z,0.70
2022-11-05T05:09:41.536Z,0.70
2022-11-05T05:12:13.172Z,0.60
2022-11-05T05:14:42.782Z,0.70
2022-11-05T05:17:16.168Z,0.63
2022-11-05T05:20:04.159Z,0.60
2022-11-05T05:22:34.352Z,0.70
2022-11-05T05:25:05.502Z,0.50
2022-11-05T05:27:34.616Z,0.60
2022-11-05T05:30:01.338Z,0.70
2022-11-05T05:32:32.968Z,0.60
2022-11-05T05:35:03.150Z,0.70
2022-11-05T05:37:34.829Z,0.70
2022-11-05T05:40:08.679Z,0.63
2022-11-05T05:42:43.410Z,0.90
2022-11-05T05:45:13.606Z,0.68
2022-11-05T05:47:42.995Z,0.65
2022-11-05T05:50:12.268Z,0.60
2022-11-05T05:52:43.112Z,0.80
2022-11-05T05:55:14.496Z,0.70
2022-11-05T05:57:41.273Z,0.70
2022-11-05T06:00:12.253Z,0.82
2022-11-05T06:02:44.274Z,0.50
2022-11-05T06:05:12.277Z,0.80
2022-11-05T06:07:42.983Z,0.52
2022-11-05T06:10:18.139Z,0.70
2022-11-05T06:12:49.836Z,0.80
2022-11-05T06:15:21.939Z,0.65
2022-11-05T06:17:51.641Z,0.68
2022-11-05T06:20:24.324Z,0.68
2022-11-05T06:23:02.134Z,0.73
2022-11-05T06:25:31.581Z,0.80
2022-11-05T06:28:01.644Z,0.70
2022-11-05T06:30:30.949Z,0.75
2022-11-05T06:33:08.287Z,0.50
2022-11-05T06:35:41.429Z,0.60
2022-11-05T06:38:11.908Z,0.50
2022-11-05T06:40:50.798Z,0.68
2022-11-05T06:43:23.081Z,0.70
2022-11-05T06:46:02.749Z,0.50
2022-11-05T06:48:34.614Z,0.70
2022-11-05T06:51:05.896Z,0.50
2022-11-05T06:53:37.786Z,0.60
2022-11-05T06:56:08.573Z,0.68
2022-11-05T06:58:40.112Z,0.60
2022-11-05T07:01:12.109Z,0.70
2022-11-05T07:03:41.461Z,0.60
2022-11-05T07:06:09.439Z,0.77
2022-11-05T07:08:38.791Z,0.60
2022-11-05T07:11:14.868Z,0.57
2022-11-05T07:13:45.728Z,0.60
2022-11-05T07:16:13.749Z,0.70
2022-11-05T07:18:45.135Z,0.50
2022-11-05T07:21:16.747Z,0.60
2022-11-05T07:23:48.191Z,0.60
2022-11-05T07:26:16.339Z,0.70
2022-11-05T07:28:43.412Z,0.65
2022-11-05T07:31:13.978Z,0.75
2022-11-05T07:33:49.605Z,0.70
2022-11-05T07:36:18.079Z,0.60
2022-11-05T07:38:45.307Z,0.70
2022-11-05T07:41:14.405Z,0.52
2022-11-05T07:43:45.041Z,0.70
2022-11-05T07:46:15.267Z,0.80
2022-11-05T07:48:47.808Z,0.65
2022-11-05T07:51:19.990Z,0.60
2022-11-05T07:53:50.069Z,0.60
2022-11-05T07:56:20.338Z,0.73
2022-11-05T07:58:51.499Z,0.65
2022-11-05T08:01:19.219Z,0.60
2022-11-05T08:03:50.067Z,0.60
2022-11-05T08:06:20.339Z,0.57
2022-11-05T08:08:50.145Z,0.63
2022-11-05T08:11:20.226Z,0.70
2022-11-05T08:13:49.019Z,0.50
2022-11-05T08:16:21.143Z,0.70
2022-11-05T08:18:51.499Z,0.50
2022-11-05T08:21:22.952Z,0.50
2022-11-05T08:23:52.962Z,0.50
2022-11-05T08:26:21.938Z,0.60
2022-11-05T08:28:51.621Z,0.50
2022-11-05T08:31:21.458Z,0.70
2022-11-05T08:34:02.205Z,0.50
2022-11-05T08:36:32.232Z,0.50
2022-11-05T08:39:03.796Z,0.60
2022-11-05T08:41:33.646Z,0.65
2022-11-05T08:44:04.643Z,0.50
2022-11-05T08:46:35.431Z,0.60
2022-11-05T08:49:09.532Z,0.63
2022-11-05T08:51:39.383Z,0.50
2022-11-05T08:54:07.074Z,0.65
2022-11-05T08:56:36.646Z,0.70
2022-11-05T08:59:05.851Z,0.60
2022-11-05T09:01:35.028Z,0.55
2022-11-05T09:04:04.613Z,0.60
2022-11-05T09:06:33.401Z,0.57
2022-11-05T09:09:02.314Z,0.60
2022-11-05T09:11:49.949Z,0.60
2022-11-05T09:14:23.207Z,0.47
2022-11-05T09:16:54.724Z,0.50
2022-11-05T09:19:24.803Z,0.50
2022-11-05T09:21:52.324Z,0.60
2022-11-05T09:24:24.146Z,0.60
2022-11-05T09:26:54.832Z,0.60
2022-11-05T09:29:23.908Z,0.60
2022-11-05T09:31:54.867Z,0.68
2022-11-05T09:34:22.264Z,0.70
2022-11-05T09:36:54.083Z,0.55
2022-11-05T09:39:24.462Z,0.57
2022-11-05T09:41:57.587Z,0.70
2022-11-05T09:44:36.337Z,0.57
2022-11-05T09:47:09.847Z,0.60
2022-11-05T09:49:47.155Z,0.60
2022-11-05T09:52:29.289Z,0.60
2022-11-05T09:55:05.570Z,0.60
2022-11-05T09:58:00.387Z,0.57
2022-11-05T10:00:32.044Z,0.60
2022-11-05T10:03:10.096Z,0.43
2022-11-05T10:05:41.775Z,0.55
2022-11-05T10:08:20.875Z,0.50
2022-11-05T10:11:07.600Z,0.52
2022-11-05T10:13:59.636Z,0.40
2022-11-05T10:16:36.358Z,0.50
2022-11-05T10:19:19.025Z,0.65
2022-11-05T10:22:06.242Z,0.65
2022-11-05T10:24:36.827Z,0.60
2022-11-05T10:27:07.196Z,0.45
2022-11-05T10:29:37.575Z,0.57
2022-11-05T10:32:11.013Z,0.60
2022-11-05T10:34:41.789Z,0.55
2022-11-05T10:37:13.414Z,0.52
2022-11-05T10:39:40.009Z,0.50
2022-11-05T10:42:36.314Z,0.80
2022-11-05T10:45:13.136Z,0.52
2022-11-05T10:48:00.414Z,0.60
2022-11-05T10:50:31.384Z,0.80
2022-11-05T10:53:11.487Z,0.47
2022-11-05T10:55:47.135Z,0.60
2022-11-05T10:58:18.402Z,0.45
2022-11-05T11:01:05.857Z,0.50
2022-11-05T11:03:54.449Z,0.60
2022-11-05T11:06:29.944Z,0.57
2022-11-05T11:09:01.447Z,0.60
2022-11-05T11:11:40.836Z,0.70
2022-11-05T11:14:12.610Z,0.60
2022-11-05T11:16:47.133Z,0.55
2022-11-05T11:19:39.465Z,0.55
2022-11-05T11:22:12.886Z,0.50
2022-11-05T11:24:54.112Z,0.40
2022-11-05T11:27:33.812Z,0.60
2022-11-05T11:30:03.072Z,0.50
2022-11-05T11:32:43.098Z,0.50
2022-11-05T11:35:28.406Z,0.50
2022-11-05T11:38:00.369Z,0.50
2022-11-05T11:40:36.747Z,0.50
2022-11-05T11:43:18.145Z,0.60
2022-11-05T11:45:50.038Z,0.70
2022-11-05T11:48:22.455Z,0.50
2022-11-05T11:50:53.349Z,0.50
2022-11-05T11:53:22.701Z,0.52
2022-11-05T11:56:02.665Z,0.50
2022-11-05T11:58:42.954Z,0.45
2022-11-05T12:01:11.666Z,0.60
2022-11-05T12:03:52.388Z,0.50
2022-11-05T12:06:53.813Z,0.50
2022-11-05T12:09:26.926Z,0.40
2022-11-05T12:12:13.597Z,0.50
2022-11-05T12:14:56.902Z,0.50
2022-11-05T12:17:45.547Z,0.40
2022-11-05T12:20:58.698Z,0.40
2022-11-05T12:23:41.116Z,0.50
2022-11-05T12:26:21.964Z,0.57
2022-11-05T12:29:18.737Z,0.57
2022-11-05T12:32:18.712Z,0.50
2022-11-05T12:35:16.377Z,0.40
2022-11-05T12:37:57.119Z,0.60
2022-11-05T12:40:40.419Z,0.50
2022-11-05T12:43:32.685Z,0.50
2022-11-05T12:46:27.425Z,0.50
2022-11-05T12:49:23.469Z,0.50
2022-11-05T12:52:21.279Z,0.40
2022-11-05T12:55:03.997Z,0.30
2022-11-05T12:57:39.497Z,0.50
2022-11-05T13:00:27.992Z,0.50
2022-11-05T13:03:22.050Z,0.50
2022-11-05T13:06:05.888Z,0.50
2022-11-05T13:09:10.899Z,0.60
2022-11-05T13:11:49.390Z,0.60
2022-11-05T13:14:42.653Z,0.32
2022-11-05T13:17:23.972Z,0.40
2022-11-05T13:20:22.164Z,0.60
2022-11-05T13:22:59.194Z,0.40
2022-11-05T13:25:39.096Z,0.38
2022-11-05T13:28:21.911Z,0.45
2022-11-05T13:30:56.099Z,0.40
2022-11-05T13:33:29.742Z,0.40
2022-11-05T13:36:27.297Z,0.60
2022-11-05T13:39:09.829Z,0.60
2022-11-05T13:41:53.323Z,0.60
2022-11-05T13:44:43.726Z,0.40
2022-11-05T13:47:33.937Z,0.60
2022-11-05T13:50:41.809Z,0.30
2022-11-05T13:53:47.450Z,0.45
2022-11-05T13:56:32.212Z,0.50
2022-11-05T13:59:05.291Z,0.40
2022-11-05T14:01:50.320Z,0.60
2022-11-05T14:04:44.672Z,0.50
2022-11-05T14:07:28.504Z,0.70
2022-11-05T14:10:11.514Z,0.55
2022-11-05T14:12:47.068Z,0.40
2022-11-05T14:15:21.366Z,0.50
2022-11-05T14:18:04.034Z,0.50
2022-11-05T14:20:31.809Z,0.50
2022-11-05T14:23:18.470Z,0.50
2022-11-05T14:25:47.476Z,0.50
2022-11-05T14:28:36.548Z,0.50
2022-11-05T14:31:18.300Z,0.60
2022-11-05T14:34:02.301Z,0.60
2022-11-05T14:36:41.722Z,0.60
2022-11-05T14:39:28.332Z,0.50
2022-11-05T14:42:22.648Z,0.60
2022-11-05T14:45:11.162Z,0.50
2022-11-05T14:47:55.884Z,0.47
2022-11-05T14:50:46.523Z,0.50
2022-11-05T14:53:36.900Z,0.40
2022-11-05T14:56:14.259Z,0.40
2022-11-05T14:58:44.343Z,0.40
2022-11-05T15:01:16.873Z,0.50
2022-11-05T15:04:20.788Z,0.40
2022-11-05T15:07:04.685Z,0.50
2022-11-05T15:09:39.117Z,0.52
2022-11-05T15:12:33.014Z,0.60
2022-11-05T15:15:01.633Z,0.50
2022-11-05T15:17:41.948Z,0.50
2022-11-05T15:20:23.483Z,0.63
2022-11-05T15:22:58.749Z,0.60
2022-11-05T15:26:03.975Z,0.40
2022-11-05T15:28:51.165Z,0.50
2022-11-05T15:31:32.685Z,0.40
2022-11-05T15:34:24.298Z,0.50
2022-11-05T15:37:19.683Z,0.50
2022-11-05T15:39:49.759Z,0.40
2022-11-05T15:42:21.815Z,0.40
2022-11-05T15:44:52.984Z,0.40
2022-11-05T15:47:34.649Z,0.50
2022-11-05T15:50:14.219Z,0.50
2022-11-05T15:53:04.811Z,0.60
2022-11-05T15:55:57.826Z,0.32
2022-11-05T15:58:26.559Z,0.50
2022-11-05T16:00:55.476Z,0.65
2022-11-05T16:03:34.529Z,0.50
2022-11-05T16:06:01.983Z,0.60
2022-11-05T16:08:32.732Z,0.40
2022-11-05T16:11:03.648Z,0.63
2022-11-05T16:13:40.142Z,0.50
2022-11-05T16:16:15.865Z,0.40
2022-11-05T16:18:48.650Z,0.40
2022-11-05T16:21:23.024Z,0.40
2022-11-05T16:24:00.137Z,0.60
2022-11-05T16:27:02.203Z,0.40
2022-11-05T16:29:35.711Z,0.60
2022-11-05T16:32:30.264Z,0.60
2022-11-05T16:35:06.548Z,0.43
2022-11-05T16:37:51.633Z,0.50
2022-11-05T16:40:26.956Z,0.55
2022-11-05T16:42:56.564Z,0.70
2022-11-05T16:45:27.331Z,0.50
2022-11-05T16:47:54.393Z,0.52
2022-11-05T16:50:32.935Z,0.60
2022-11-05T16:53:03.474Z,0.68
2022-11-05T16:55:31.941Z,0.60
2022-11-05T16:58:00.094Z,0.50
2022-11-05T17:00:31.267Z,0.50
2022-11-05T17:02:59.207Z,0.57
2022-11-05T17:05:33.557Z,0.50
2022-11-05T17:08:03.689Z,0.40
2022-11-05T17:10:32.007Z,0.70
2022-11-05T17:13:07.131Z,0.55
2022-11-05T17:15:39.027Z,0.70
2022-11-05T17:18:17.064Z,0.63
2022-11-05T17:20:49.105Z,0.63
2022-11-05T17:23:21.956Z,0.65
2022-11-05T17:25:53.182Z,0.57
2022-11-05T17:28:26.476Z,0.70
2022-11-05T17:30:56.090Z,0.60
2022-11-05T17:33:24.212Z,0.85
2022-11-05T17:35:53.399Z,0.60
2022-11-05T17:38:25.266Z,0.70
2022-11-05T17:40:56.119Z,0.50
2022-11-05T17:43:26.151Z,0.50
2022-11-05T17:46:04.305Z,0.60
2022-11-05T17:48:35.191Z,0.80
2022-11-05T17:51:02.719Z,0.70
2022-11-05T17:53:32.033Z,0.50
2022-11-05T17:56:01.969Z,0.77
2022-11-05T17:58:29.376Z,0.60
2022-11-05T18:00:59.870Z,0.50
2022-11-05T18:03:28.349Z,0.70
2022-11-05T18:06:04.186Z,0.70
2022-11-05T18:08:35.491Z,0.70
2022-11-05T18:11:07.327Z,0.63
2022-11-05T18:13:36.134Z,0.60
2022-11-05T18:16:05.705Z,0.65
2022-11-05T18:18:34.032Z,0.88
2022-11-05T18:21:01.639Z,0.60
2022-11-05T18:23:30.073Z,0.70
2022-11-05T18:25:58.635Z,0.70
2022-11-05T18:28:26.208Z,0.90
2022-11-05T18:30:55.637Z,0.60
2022-11-05T18:33:27.769Z,0.65
2022-11-05T18:35:56.809Z,0.55
2022-11-05T18:38:26.119Z,0.60
2022-11-05T18:40:54.446Z,0.70
2022-11-05T18:43:27.667Z,0.80
2022-11-05T18:45:58.559Z,0.70
2022-11-05T18:48:29.828Z,0.70
2022-11-05T18:51:01.891Z,0.60
2022-11-05T18:53:32.639Z,0.73
2022-11-05T18:56:01.246Z,0.80
2022-11-05T18:58:28.757Z,0.70
2022-11-05T19:00:56.730Z,0.65
2022-11-05T19:03:24.385Z,0.68
2022-11-05T19:05:55.981Z,0.65
2022-11-05T19:08:26.769Z,0.65
2022-11-05T19:10:58.153Z,0.90
2022-11-05T19:13:27.498Z,0.77
2022-11-05T19:15:58.052Z,0.85
2022-11-05T19:18:25.774Z,0.68
2022-11-05T19:20:53.349Z,0.90
2022-11-05T19:23:20.907Z,0.98
2022-11-05T19:25:49.086Z,1.05
2022-11-05T19:28:17.417Z,0.85
2022-11-05T19:30:48.343Z,0.80
2022-11-05T19:33:19.426Z,0.70
2022-11-05T19:35:51.111Z,0.73
2022-11-05T19:38:21.618Z,1.08
2022-11-05T19:40:49.634Z,0.77
2022-11-05T19:43:17.273Z,0.70
2022-11-05T19:45:45.657Z,1.20
2022-11-05T19:48:19.066Z,0.95
2022-11-05T19:50:50.419Z,0.98
2022-11-05T19:53:20.571Z,1.10
2022-11-05T19:55:48.821Z,0.90
2022-11-05T19:58:16.173Z,0.90
2022-11-05T20:00:43.759Z,1.10
2022-11-05T20:03:15.432Z,0.95
2022-11-05T20:05:46.310Z,0.93
2022-11-05T20:08:16.804Z,0.90
2022-11-05T20:10:46.857Z,1.00
2022-11-05T20:13:18.677Z,1.10
2022-11-05T20:15:48.791Z,0.90
2022-11-05T20:18:16.836Z,0.90
2022-11-05T20:20:46.840Z,0.90
2022-11-05T20:23:17.393Z,1.00
2022-11-05T20:25:44.504Z,0.82
2022-11-05T20:28:14.659Z,0.88
2022-11-05T20:30:43.828Z,0.95
2022-11-05T20:33:14.858Z,1.17
2022-11-05T20:35:42.877Z,0.88
2022-11-05T20:38:14.410Z,1.02
2022-11-05T20:40:45.426Z,1.00
2022-11-05T20:43:16.990Z,1.08
2022-11-05T20:45:44.660Z,1.13
2022-11-05T20:48:14.860Z,1.00
2022-11-05T20:50:44.311Z,1.00
2022-11-05T20:53:14.754Z,1.50
2022-11-05T20:55:47.305Z,1.00
2022-11-05T20:58:18.805Z,1.00
2022-11-05T21:00:55.368Z,1.00
2022-11-05T21:03:23.390Z,0.90
2022-11-05T21:06:02.369Z,1.10
2022-11-05T21:08:32.345Z,1.00
2022-11-05T21:11:03.364Z,1.27
2022-11-05T21:13:32.213Z,1.10
2022-11-05T21:16:01.784Z,1.23
2022-11-05T21:18:32.625Z,1.00
2022-11-05T21:21:02.087Z,1.08
2022-11-05T21:23:29.252Z,1.02
2022-11-05T21:25:58.853Z,1.17
2022-11-05T21:28:27.501Z,1.13
2022-11-05T21:30:54.347Z,1.17
2022-11-05T21:33:25.100Z,1.00
2022-11-05T21:35:54.439Z,1.02
2022-11-05T21:38:24.894Z,1.30
2022-11-05T21:40:54.318Z,1.17
2022-11-05T21:43:23.539Z,1.02
2022-11-05T21:45:55.050Z,1.50
2022-11-05T21:48:27.538Z,1.17
2022-11-05T21:51:14.705Z,1.65
2022-11-05T21:54:03.401Z,1.20
2022-11-05T21:56:53.066Z,1.20
2022-11-05T21:59:40.710Z,1.30
2022-11-05T22:02:10.049Z,1.30
2022-11-05T22:04:41.676Z,1.10
2022-11-05T22:07:12.331Z,1.20
2022-11-05T22:09:39.181Z,1.20
2022-11-05T22:12:11.157Z,0.98
2022-11-05T22:14:42.266Z,1.40
2022-11-05T22:17:14.624Z,1.25
2022-11-05T22:19:42.689Z,1.40
2022-11-05T22:22:10.112Z,1.25
2022-11-05T22:24:40.964Z,1.58
2022-11-05T22:27:12.855Z,1.20
2022-11-05T22:29:42.664Z,1.30
2022-11-05T22:32:13.566Z,1.17
2022-11-05T22:34:41.097Z,1.30
2022-11-05T22:37:11.904Z,1.30
2022-11-05T22:39:42.563Z,1.35
2022-11-05T22:42:11.800Z,1.20
2022-11-05T22:44:39.272Z,1.48
2022-11-05T22:47:09.836Z,1.33
2022-11-05T22:49:38.398Z,1.30
2022-11-05T22:52:09.695Z,1.50
2022-11-05T22:54:39.594Z,1.27
2022-11-05T22:57:11.467Z,1.40
2022-11-05T22:59:39.928Z,1.45
2022-11-05T23:02:10.214Z,1.35
2022-11-05T23:04:43.104Z,1.50
2022-11-05T23:07:33.732Z,1.48
2022-11-05T23:10:21.375Z,1.17
2022-11-05T23:12:51.141Z,1.27
2022-11-05T23:15:42.400Z,1.45
2022-11-05T23:18:29.362Z,1.20
2022-11-05T23:21:28.628Z,1.30
2022-11-05T23:24:05.792Z,1.40
2022-11-05T23:26:54.815Z,1.48
2022-11-05T23:29:27.784Z,1.33
2022-11-05T23:32:14.329Z,1.38
2022-11-05T23:34:45.181Z,1.40
2022-11-05T23:37:32.692Z,1.48
2022-11-05T23:40:02.893Z,1.73
2022-11-05T23:42:49.933Z,1.60
2022-11-05T23:45:36.279Z,1.50
2022-11-05T23:48:16.940Z,1.40
2022-11-05T23:51:02.522Z,1.52
2022-11-05T23:53:32.507Z,1.35
2022-11-05T23:56:12.573Z,1.65
2022-11-05T23:58:44.546Z,1.20
